Time;durP1;ratioP1;P1;durP2;ratioP2;P2;SDS_P1;SDS_P2;PMS_P1;PMS_P2;Temp;Humidity;BMP_temperature;BMP_pressure;BME280_temperature;BME280_humidity;BME280_pressure;Samples;Min_cycle;Max_cycle;Signal;HPM_P1;HPM_P2
2023/01/11 00:01:52;;;;;;;2.88;1.48;;;10.10;97.80;;;;;;5135651;28;20020;-75
2023/01/11 00:04:19;;;;;;;3.40;1.65;;;10.20;97.70;;;;;;5136730;27;20023;-75
2023/01/11 00:06:45;;;;;;;2.20;1.23;;;10.20;97.60;;;;;;5118647;28;20091;-75
2023/01/11 00:09:11;;;;;;;2.42;1.20;;;10.20;97.50;;;;;;5136464;28;20045;-75
2023/01/11 00:11:37;;;;;;;3.15;1.23;;;10.30;97.60;;;;;;5135456;28;20016;-75
2023/01/11 00:14:03;;;;;;;1.85;1.17;;;10.30;97.50;;;;;;5135517;28;20047;-75
2023/01/11 00:16:28;;;;;;;3.45;1.63;;;10.30;97.40;;;;;;5135350;28;20028;-75
2023/01/11 00:18:55;;;;;;;1.85;0.98;;;10.30;97.40;;;;;;5136331;28;20063;-75
2023/01/11 00:21:21;;;;;;;2.67;1.30;;;10.40;97.30;;;;;;5118271;28;20126;-76
2023/01/11 00:23:48;;;;;;;2.38;1.15;;;10.40;97.20;;;;;;5118446;28;20020;-76
2023/01/11 00:26:15;;;;;;;1.42;1.08;;;10.50;97.10;;;;;;5135103;28;20090;-75
2023/01/11 00:28:41;;;;;;;11.85;1.95;;;10.50;97.00;;;;;;5135149;28;20016;-75
2023/01/11 00:31:06;;;;;;;1.75;0.95;;;10.50;97.00;;;;;;5136133;28;20019;-75
2023/01/11 00:33:32;;;;;;;3.17;1.17;;;10.50;96.90;;;;;;5118193;28;20031;-75
2023/01/11 00:35:58;;;;;;;2.40;1.45;;;10.50;96.90;;;;;;5100957;28;20044;-76
2023/01/11 00:49:22;;;;;;;1.05;0.80;;;10.70;96.70;;;;;;5135894;28;20046;-76
2023/01/11 00:51:48;;;;;;;2.53;1.15;;;10.70;96.70;;;;;;5135712;27;20016;-76
2023/01/11 00:54:14;;;;;;;1.38;0.80;;;10.70;96.70;;;;;;5134712;28;20054;-75
2023/01/11 00:56:40;;;;;;;2.00;0.65;;;10.70;96.60;;;;;;5134662;28;20024;-75
2023/01/11 00:59:07;;;;;;;1.45;0.90;;;10.70;96.60;;;;;;5134556;28;20031;-76
2023/01/11 01:01:32;;;;;;;1.73;0.60;;;10.80;96.60;;;;;;5117560;28;20031;-75
2023/01/11 01:04:02;;;;;;;2.90;1.27;;;10.80;96.70;;;;;;5134369;28;20095;-76
2023/01/11 01:06:28;;;;;;;1.20;0.90;;;10.80;97.00;;;;;;5117255;28;20051;-76
2023/01/11 01:08:53;;;;;;;2.33;1.20;;;10.80;97.20;;;;;;5134329;28;20030;-75
2023/01/11 01:11:19;;;;;;;5.15;1.20;;;10.80;97.50;;;;;;5135310;28;20031;-76
2023/01/11 01:16:31;;;;;;;1.02;0.90;;;10.80;98.00;;;;;;5134689;28;20057;-75
2023/01/11 01:18:59;;;;;;;2.38;0.98;;;10.80;98.20;;;;;;5117507;28;20023;-76
2023/01/11 01:21:26;;;;;;;1.98;1.20;;;10.80;98.40;;;;;;5134147;28;20099;-76
2023/01/11 01:23:52;;;;;;;2.20;0.93;;;10.80;98.50;;;;;;5135063;28;20051;-75
2023/01/11 01:26:18;;;;;;;1.67;1.30;;;10.80;98.70;;;;;;5134945;28;20039;-75
2023/01/11 01:28:44;;;;;;;0.82;0.60;;;10.80;99.00;;;;;;5134030;28;20015;-75
2023/01/11 01:31:09;;;;;;;2.53;1.08;;;10.80;99.30;;;;;;5134101;28;20028;-75
2023/01/11 01:33:35;;;;;;;1.60;1.10;;;10.70;99.50;;;;;;5116866;28;20057;-75
2023/01/11 01:36:02;;;;;;;3.17;1.08;;;10.80;99.70;;;;;;5134654;28;20047;-76
2023/01/11 01:38:28;;;;;;;2.42;1.33;;;10.80;99.80;;;;;;5133886;28;20113;-76
2023/01/11 01:40:55;;;;;;;2.15;1.00;;;10.80;99.80;;;;;;5133811;28;20458;-76
2023/01/11 01:43:22;;;;;;;2.38;0.93;;;10.80;99.90;;;;;;5116934;28;20024;-75
2023/01/11 01:45:51;;;;;;;1.80;1.00;;;10.80;99.90;;;;;;5116901;28;20035;-75
2023/01/11 01:48:20;;;;;;;4.25;1.15;;;10.80;99.90;;;;;;5116962;28;20053;-75
2023/01/11 01:50:50;;;;;;;2.25;1.20;;;10.80;99.90;;;;;;5134712;28;20038;-75
2023/01/11 01:53:35;;;;;;;1.80;1.33;;;10.80;99.90;;;;;;5132618;28;20020;-76
2023/01/11 01:56:05;;;;;;;8.20;1.40;;;10.80;99.90;;;;;;5133533;28;20019;-75
2023/01/11 01:58:39;;;;;;;3.00;0.90;;;10.80;99.90;;;;;;5134480;28;20024;-74
2023/01/11 02:03:50;;;;;;;0.57;0.38;;;10.80;99.90;;;;;;5133758;28;20041;-75
2023/01/11 02:06:16;;;;;;;0.90;0.55;;;10.80;99.90;;;;;;5116142;28;20027;-75
2023/01/11 02:08:48;;;;;;;0.95;0.88;;;10.80;99.90;;;;;;5116196;28;20034;-75
2023/01/11 02:11:31;;;;;;;1.10;0.70;;;10.80;99.90;;;;;;5133305;28;20019;-75
2023/01/11 02:14:07;;;;;;;1.95;1.00;;;10.80;99.90;;;;;;5134271;28;20019;-75
2023/01/11 02:16:33;;;;;;;2.25;0.93;;;10.80;99.90;;;;;;5134251;28;20027;-75
2023/01/11 02:18:59;;;;;;;0.90;0.80;;;10.90;99.90;;;;;;5134140;28;20079;-75
2023/01/11 02:22:11;;;;;;;1.60;1.05;;;10.90;99.90;;;;;;5133179;28;20027;-75
2023/01/11 02:24:43;;;;;;;1.27;0.80;;;10.90;99.90;;;;;;5133017;28;20072;-75
2023/01/11 02:27:22;;;;;;;2.97;0.80;;;10.90;99.90;;;;;;5134250;28;20030;-75
2023/01/11 02:29:51;;;;;;;0.75;0.75;;;10.90;99.90;;;;;;5133003;28;20024;-75
2023/01/11 02:32:37;;;;;;;1.35;0.75;;;10.90;99.90;;;;;;5132969;28;20024;-75
2023/01/11 02:35:25;;;;;;;1.15;0.90;;;11.00;99.90;;;;;;5132984;28;20027;-75
2023/01/11 02:38:02;;;;;;;1.23;0.95;;;11.00;99.90;;;;;;5132443;28;20506;-75
2023/01/11 02:40:52;;;;;;;1.63;1.15;;;11.00;99.90;;;;;;5133990;28;20061;-75
2023/01/11 02:46:33;;;;;;;0.98;0.88;;;11.00;99.90;;;;;;5133983;28;20482;-75
2023/01/11 02:49:32;;;;;;;1.10;0.57;;;11.00;99.90;;;;;;5133033;28;20432;-75
2023/01/11 02:52:20;;;;;;;2.03;1.00;;;11.00;99.90;;;;;;5132919;28;20016;-75
2023/01/11 02:54:53;;;;;;;0.90;0.73;;;11.10;99.90;;;;;;5132806;28;20020;-75
2023/01/11 02:57:21;;;;;;;0.80;0.65;;;11.00;99.90;;;;;;5133849;28;20047;-75
2023/01/11 02:59:48;;;;;;;1.30;0.90;;;11.00;99.90;;;;;;5133760;28;20020;-75
2023/01/11 03:02:15;;;;;;;2.42;1.20;;;11.10;99.90;;;;;;5115880;28;20020;-75
2023/01/11 03:04:41;;;;;;;1.35;0.68;;;11.00;99.90;;;;;;5118372;28;20027;-75
2023/01/11 03:07:22;;;;;;;0.93;0.75;;;11.10;99.90;;;;;;5136798;28;20028;-75
2023/01/11 03:10:01;;;;;;;1.33;0.80;;;11.10;99.90;;;;;;5136637;28;20024;-75
2023/01/11 03:12:56;;;;;;;1.15;0.80;;;11.10;99.90;;;;;;5137688;28;20045;-75
2023/01/11 03:15:59;;;;;;;3.58;1.13;;;11.10;99.90;;;;;;5136705;28;20091;-75
2023/01/11 03:18:45;;;;;;;1.00;0.75;;;11.20;99.90;;;;;;5136602;28;20032;-75
2023/01/11 03:21:26;;;;;;;1.27;0.77;;;11.10;99.90;;;;;;5137525;27;20027;-75
2023/01/11 03:24:09;;;;;;;1.40;0.93;;;11.20;99.90;;;;;;5137425;28;20032;-75
2023/01/11 03:27:00;;;;;;;1.00;0.75;;;11.20;99.90;;;;;;5137403;28;20048;-75
2023/01/11 03:29:25;;;;;;;1.80;0.93;;;11.20;99.90;;;;;;5136555;28;20034;-75
2023/01/11 03:32:07;;;;;;;0.80;0.75;;;11.20;99.90;;;;;;5137242;28;20020;-76
2023/01/11 03:34:43;;;;;;;1.45;0.88;;;11.20;99.90;;;;;;5137272;28;20024;-75
2023/01/11 03:37:21;;;;;;;1.20;0.85;;;11.20;99.90;;;;;;5136007;28;20042;-76
2023/01/11 03:40:11;;;;;;;1.23;1.10;;;11.20;99.90;;;;;;5137166;28;20054;-75
2023/01/11 03:43:09;;;;;;;1.50;0.90;;;11.30;99.90;;;;;;5137257;28;20079;-75
2023/01/11 03:45:29;;;;;;;1.70;0.70;;;11.30;99.90;;;;;;5136798;28;20035;-75
2023/01/11 03:47:55;;;;;;;1.77;1.08;;;11.30;99.90;;;;;;5136043;28;20020;-75
2023/01/11 03:50:22;;;;;;;2.30;0.95;;;11.30;99.90;;;;;;5135930;28;20024;-75
2023/01/11 03:52:49;;;;;;;2.70;0.95;;;11.30;99.90;;;;;;5135826;28;20091;-75
2023/01/11 03:55:15;;;;;;;4.55;0.90;;;11.30;99.90;;;;;;5135934;28;20047;-75
2023/01/11 03:57:50;;;;;;;2.45;0.98;;;11.30;99.90;;;;;;5136849;28;20034;-75
2023/01/11 04:00:21;;;;;;;1.38;0.90;;;11.40;99.90;;;;;;5135761;28;20035;-75
2023/01/11 04:02:48;;;;;;;1.45;1.00;;;11.40;99.90;;;;;;5135964;28;20024;-75
2023/01/11 04:05:14;;;;;;;1.58;0.90;;;11.40;99.90;;;;;;5135432;28;20023;-75
2023/01/11 04:07:40;;;;;;;1.27;0.90;;;11.40;99.90;;;;;;5135596;28;20031;-75
2023/01/11 04:10:06;;;;;;;1.63;0.88;;;11.40;99.90;;;;;;5136556;28;20165;-75
2023/01/11 04:12:32;;;;;;;0.73;0.73;;;11.40;99.90;;;;;;5135532;28;20051;-75
2023/01/11 04:14:57;;;;;;;0.98;0.80;;;11.40;99.90;;;;;;5135617;28;20036;-75
2023/01/11 04:17:23;;;;;;;0.88;0.55;;;11.40;99.90;;;;;;5135276;28;20031;-76
2023/01/11 04:19:49;;;;;;;1.65;1.00;;;11.40;99.90;;;;;;5101545;28;20051;-75
2023/01/11 04:22:14;;;;;;;0.85;0.60;;;11.40;99.90;;;;;;5136319;28;20031;-75
2023/01/11 04:24:40;;;;;;;1.15;0.70;;;11.40;99.90;;;;;;5136191;28;20031;-75
2023/01/11 04:27:05;;;;;;;0.90;0.60;;;11.50;99.90;;;;;;5136207;28;20024;-76
2023/01/11 04:29:31;;;;;;;0.65;0.60;;;11.50;99.90;;;;;;5135139;28;20023;-76
2023/01/11 04:31:57;;;;;;;1.17;0.75;;;11.50;99.90;;;;;;5118173;28;20024;-75
2023/01/11 04:34:22;;;;;;;1.00;0.60;;;11.50;99.90;;;;;;5135145;28;20035;-75
2023/01/11 04:36:48;;;;;;;2.83;0.70;;;11.50;99.90;;;;;;5136010;28;20030;-76
2023/01/11 04:39:13;;;;;;;1.15;0.75;;;11.50;99.90;;;;;;5134862;28;20055;-75
2023/01/11 04:44:24;;;;;;;1.00;0.63;;;11.60;99.90;;;;;;5136082;28;20080;-76
2023/01/11 04:46:49;;;;;;;0.88;0.68;;;11.60;99.90;;;;;;5134768;28;20027;-75
2023/01/11 04:49:15;;;;;;;1.30;0.75;;;11.60;99.90;;;;;;5135762;28;20035;-75
2023/01/11 04:51:41;;;;;;;1.67;0.85;;;11.60;99.90;;;;;;5134816;28;20019;-75
2023/01/11 04:54:07;;;;;;;1.17;0.82;;;11.60;99.90;;;;;;5135667;28;20038;-75
2023/01/11 04:56:32;;;;;;;1.45;0.95;;;11.60;99.90;;;;;;5135658;28;20015;-75
2023/01/11 04:58:58;;;;;;;1.75;1.15;;;11.60;99.90;;;;;;5117597;28;20027;-75
2023/01/11 05:01:24;;;;;;;2.15;1.40;;;11.60;99.90;;;;;;5117549;28;20042;-76
2023/01/11 05:03:50;;;;;;;2.78;1.42;;;11.60;99.90;;;;;;5117428;28;20028;-76
2023/01/11 05:06:18;;;;;;;2.38;1.67;;;11.60;99.90;;;;;;5135364;28;20024;-75
2023/01/11 05:08:45;;;;;;;2.15;1.58;;;11.70;99.90;;;;;;5135328;28;20037;-76
2023/01/11 05:11:11;;;;;;;2.85;1.33;;;11.70;99.90;;;;;;5134322;28;20035;-76
2023/01/11 05:13:42;;;;;;;2.80;1.80;;;11.80;99.90;;;;;;5134354;28;20020;-76
2023/01/11 05:16:12;;;;;;;2.92;1.63;;;11.80;99.90;;;;;;5135404;28;20027;-76
2023/01/11 05:18:46;;;;;;;2.05;1.45;;;11.90;99.90;;;;;;5134240;28;20139;-76
2023/01/11 05:21:14;;;;;;;1.73;1.48;;;11.90;99.90;;;;;;5135202;28;20019;-76
2023/01/11 05:23:40;;;;;;;3.17;1.60;;;12.00;99.90;;;;;;5117036;28;20091;-76
2023/01/11 05:26:09;;;;;;;2.70;1.73;;;12.00;99.90;;;;;;5116784;28;20036;-76
2023/01/11 05:28:35;;;;;;;2.40;1.30;;;12.00;99.90;;;;;;5133996;28;20019;-75
2023/01/11 05:31:01;;;;;;;2.88;1.48;;;12.00;99.90;;;;;;5134977;27;20027;-76
2023/01/11 05:33:27;;;;;;;2.60;1.58;;;12.10;99.90;;;;;;5133926;28;20028;-76
2023/01/11 05:36:00;;;;;;;3.38;1.60;;;12.10;99.90;;;;;;5133905;28;20029;-76
2023/01/11 05:38:26;;;;;;;2.75;1.73;;;12.10;99.90;;;;;;5133784;28;20059;-76
2023/01/11 05:40:57;;;;;;;3.17;1.80;;;12.20;99.90;;;;;;5116780;28;20019;-76
2023/01/11 05:43:23;;;;;;;3.88;1.98;;;12.20;99.90;;;;;;5133703;28;20063;-76
2023/01/11 05:45:48;;;;;;;3.58;1.88;;;12.20;99.90;;;;;;5116654;28;20027;-75
2023/01/11 05:48:14;;;;;;;3.70;2.00;;;12.20;99.90;;;;;;5133616;28;20045;-76
2023/01/11 05:50:40;;;;;;;3.53;2.13;;;12.20;99.90;;;;;;5133689;28;20028;-76
2023/01/11 05:53:06;;;;;;;4.35;2.08;;;12.20;99.90;;;;;;5134514;28;20031;-76
2023/01/11 05:55:31;;;;;;;3.55;2.00;;;12.20;99.90;;;;;;5134645;28;20538;-76
2023/01/11 05:57:57;;;;;;;6.32;2.58;;;12.20;99.90;;;;;;5134474;28;20061;-76
2023/01/11 06:00:23;;;;;;;5.63;2.63;;;12.30;99.90;;;;;;5116432;28;20101;-76
2023/01/11 06:02:48;;;;;;;5.78;3.00;;;12.30;99.90;;;;;;5134387;28;20024;-76
2023/01/11 06:05:14;;;;;;;5.30;3.03;;;12.30;99.90;;;;;;5133343;28;20042;-75
2023/01/11 06:07:40;;;;;;;6.03;3.38;;;12.30;99.90;;;;;;5133263;28;20034;-75
2023/01/11 06:10:06;;;;;;;5.45;2.75;;;12.30;99.90;;;;;;5133322;28;20047;-75
2023/01/11 06:12:32;;;;;;;6.20;3.10;;;12.30;99.80;;;;;;5133270;28;20012;-76
2023/01/11 06:14:57;;;;;;;7.05;3.42;;;12.30;99.80;;;;;;5133359;28;20042;-76
2023/01/11 06:17:23;;;;;;;7.85;3.40;;;12.40;99.70;;;;;;5133306;28;20031;-76
2023/01/11 06:19:49;;;;;;;6.93;3.35;;;12.30;99.60;;;;;;5116464;28;20027;-76
2023/01/11 06:22:14;;;;;;;5.82;3.35;;;12.30;99.50;;;;;;5133328;28;20459;-76
2023/01/11 06:24:40;;;;;;;6.38;3.15;;;12.30;99.50;;;;;;5099164;28;20046;-76
2023/01/11 06:27:05;;;;;;;9.13;3.75;;;12.30;99.40;;;;;;5133076;28;20034;-76
2023/01/11 06:29:31;;;;;;;8.15;3.20;;;12.30;99.20;;;;;;5134001;28;20027;-75
2023/01/11 06:31:57;;;;;;;7.47;2.80;;;12.30;98.40;;;;;;5116039;28;20087;-76
2023/01/11 06:34:23;;;;;;;4.45;2.63;;;12.30;98.00;;;;;;5133011;28;20494;-76
2023/01/11 06:36:48;;;;;;;8.88;2.30;;;12.30;97.70;;;;;;5133992;28;20051;-75
2023/01/11 06:39:14;;;;;;;10.57;2.22;;;12.20;96.80;;;;;;5119930;28;20065;-76
2023/01/11 06:41:39;;;;;;;6.40;1.65;;;12.20;96.30;;;;;;5122849;28;20024;-75
2023/01/11 06:44:05;;;;;;;8.45;2.00;;;12.10;96.40;;;;;;5139831;28;20446;-75
2023/01/11 06:46:31;;;;;;;8.38;1.30;;;12.10;96.50;;;;;;5139628;28;20053;-75
2023/01/11 06:48:56;;;;;;;9.98;1.73;;;12.10;96.30;;;;;;5139744;28;20031;-75
2023/01/11 06:51:22;;;;;;;6.25;1.92;;;12.00;96.20;;;;;;5122640;28;20024;-75
2023/01/11 06:53:48;;;;;;;7.63;1.70;;;12.00;95.90;;;;;;5139651;28;20016;-75
2023/01/11 06:56:17;;;;;;;4.15;1.25;;;12.00;96.00;;;;;;5122530;28;20481;-76
2023/01/11 06:58:43;;;;;;;9.65;1.75;;;11.90;95.80;;;;;;5139609;28;20028;-75
2023/01/11 07:01:09;;;;;;;6.20;1.60;;;11.90;95.70;;;;;;5139627;28;20028;-76
2023/01/11 07:03:34;;;;;;;7.68;1.70;;;11.90;95.60;;;;;;5140523;28;20079;-76
2023/01/11 07:06:00;;;;;;;9.27;1.40;;;11.90;95.50;;;;;;5139499;28;20076;-76
2023/01/11 07:08:26;;;;;;;6.78;1.45;;;11.80;95.60;;;;;;5139452;28;20030;-76
2023/01/11 07:10:53;;;;;;;9.73;1.60;;;11.80;95.60;;;;;;5105581;28;20016;-76
2023/01/11 07:13:19;;;;;;;7.85;1.42;;;11.80;95.60;;;;;;5139452;28;20045;-76
2023/01/11 07:15:47;;;;;;;10.70;1.58;;;11.80;95.50;;;;;;5139455;28;20058;-76
2023/01/11 07:18:13;;;;;;;8.85;1.33;;;11.70;95.50;;;;;;5122735;28;20024;-76
2023/01/11 07:20:39;;;;;;;13.02;2.08;;;11.70;95.30;;;;;;5139425;28;20053;-76
2023/01/11 07:23:06;;;;;;;8.68;2.13;;;11.70;95.40;;;;;;5122472;28;20027;-76
2023/01/11 07:25:32;;;;;;;14.43;1.95;;;11.70;95.30;;;;;;5139402;28;20047;-76
2023/01/11 07:28:04;;;;;;;9.77;1.70;;;11.70;95.10;;;;;;5139377;28;20024;-76
2023/01/11 07:30:32;;;;;;;7.47;1.60;;;11.70;95.20;;;;;;5139359;28;20015;-76
2023/01/11 07:32:58;;;;;;;10.60;1.60;;;11.70;94.80;;;;;;5140311;27;20011;-76
2023/01/11 07:35:25;;;;;;;12.50;2.05;;;11.70;94.80;;;;;;5139240;28;20031;-76
2023/01/11 07:37:51;;;;;;;7.97;1.63;;;11.70;94.60;;;;;;5139107;28;20038;-77
2023/01/11 07:40:17;;;;;;;15.88;2.00;;;11.70;94.40;;;;;;5140199;28;20482;-76
2023/01/11 07:43:10;;;;;;;9.25;2.30;;;11.70;94.40;;;;;;5140209;27;20043;-76
2023/01/11 07:45:36;;;;;;;;;;;11.70;94.30;;;;;;5139649;28;20051;-76
2023/01/11 07:48:04;;;;;;;13.77;1.52;;;11.60;94.10;;;;;;5139156;28;19904;-76
2023/01/11 07:50:30;;;;;;;11.95;1.75;;;11.60;94.20;;;;;;5120211;28;20024;-76
2023/01/11 07:52:55;;;;;;;12.10;1.35;;;11.50;94.30;;;;;;5137000;28;20023;-76
2023/01/11 07:55:21;;;;;;;12.70;1.70;;;11.60;94.30;;;;;;5135765;28;20031;-76
2023/01/11 07:57:47;;;;;;;9.15;1.88;;;11.50;94.20;;;;;;5135890;28;20027;-76
2023/01/11 08:00:13;;;;;;;10.40;2.05;;;11.50;93.90;;;;;;5135780;28;20032;-76
2023/01/11 08:02:39;;;;;;;9.55;3.40;;;11.50;94.00;;;;;;5118655;28;20045;-76
2023/01/11 08:05:05;;;;;;;8.88;1.70;;;11.60;93.90;;;;;;5118518;28;20028;-76
2023/01/11 08:07:30;;;;;;;11.57;1.98;;;11.50;94.00;;;;;;5118512;28;20019;-76
2023/01/11 08:09:56;;;;;;;11.80;2.08;;;11.50;94.00;;;;;;5118426;28;20066;-76
2023/01/11 08:15:09;;;;;;;8.40;1.58;;;11.50;93.90;;;;;;5135809;28;20084;-76
2023/01/11 08:17:35;;;;;;;14.15;1.90;;;11.50;93.90;;;;;;5135534;28;20038;-76
2023/01/11 08:20:02;;;;;;;9.73;1.80;;;11.50;93.60;;;;;;5135485;28;20032;-76
2023/01/11 08:22:27;;;;;;;10.95;1.73;;;11.50;93.60;;;;;;5118375;28;20038;-76
2023/01/11 08:24:53;;;;;;;10.48;1.52;;;11.40;93.40;;;;;;5135231;28;20028;-76
2023/01/11 08:27:19;;;;;;;9.18;1.48;;;11.40;93.30;;;;;;5135260;28;20036;-76
2023/01/11 08:29:44;;;;;;;12.05;1.80;;;11.50;93.40;;;;;;5135165;28;20012;-76
2023/01/11 08:32:11;;;;;;;10.10;1.60;;;11.40;93.20;;;;;;5118200;28;20503;-76
2023/01/11 08:34:37;;;;;;;9.95;2.05;;;11.40;93.30;;;;;;5135034;28;20038;-76
2023/01/11 08:37:04;;;;;;;7.53;1.83;;;11.40;93.10;;;;;;5135063;28;20024;-76
2023/01/11 08:39:30;;;;;;;4.75;1.17;;;11.40;93.00;;;;;;5135886;28;20430;-76
2023/01/11 08:42:01;;;;;;;12.70;1.77;;;11.40;92.70;;;;;;5117824;28;20069;-76
2023/01/11 08:44:27;;;;;;;12.25;1.50;;;11.40;92.90;;;;;;5134955;28;20023;-76
2023/01/11 08:46:53;;;;;;;8.40;1.45;;;11.40;92.70;;;;;;5100914;28;20118;-77
2023/01/11 08:49:18;;;;;;;9.35;1.33;;;11.40;92.80;;;;;;5117836;28;20020;-76
2023/01/11 08:51:44;;;;;;;9.35;1.30;;;11.30;92.90;;;;;;5134732;28;20027;-76
2023/01/11 08:54:13;;;;;;;7.22;1.40;;;11.40;93.00;;;;;;5117786;28;20032;-76
2023/01/11 08:56:39;;;;;;;11.60;1.75;;;11.30;92.70;;;;;;5134656;28;20019;-76
2023/01/11 08:59:05;;;;;;;7.28;1.80;;;11.30;92.80;;;;;;5134563;28;20031;-76
2023/01/11 09:01:32;;;;;;;13.85;4.15;;;11.30;92.40;;;;;;5134107;28;20023;-76
2023/01/11 09:03:58;;;;;;;9.35;1.90;;;11.30;92.20;;;;;;5134497;28;20090;-76
2023/01/11 09:06:24;;;;;;;16.13;2.45;;;11.30;92.40;;;;;;5134529;28;20020;-76
2023/01/11 09:08:50;;;;;;;15.10;4.97;;;11.30;92.40;;;;;;5134310;28;20084;-76
2023/01/11 09:13:59;;;;;;;9.32;2.33;;;11.30;92.70;;;;;;5134525;28;20039;-76
2023/01/11 09:16:25;;;;;;;10.45;1.70;;;11.30;92.40;;;;;;5117327;28;20027;-76
2023/01/11 09:18:51;;;;;;;10.85;1.90;;;11.30;92.40;;;;;;5117362;28;20031;-76
2023/01/11 09:21:16;;;;;;;12.13;3.08;;;11.30;92.50;;;;;;5117104;28;20039;-77
2023/01/11 09:23:43;;;;;;;10.98;2.35;;;11.30;92.40;;;;;;5134188;28;20030;-76
2023/01/11 09:26:10;;;;;;;11.77;2.30;;;11.30;92.30;;;;;;5135027;28;20054;-77
2023/01/11 09:28:36;;;;;;;7.68;1.70;;;11.30;92.40;;;;;;5117015;28;20110;-76
2023/01/11 09:31:02;;;;;;;20.25;4.35;;;11.20;92.30;;;;;;5134021;28;20024;-76
2023/01/11 09:33:27;;;;;;;11.45;2.40;;;11.20;92.30;;;;;;5133839;28;20035;-76
2023/01/11 09:35:55;;;;;;;10.60;2.90;;;11.20;92.30;;;;;;5116906;28;20036;-76
2023/01/11 09:38:24;;;;;;;14.25;3.20;;;11.20;92.40;;;;;;5116990;28;20050;-77
2023/01/11 09:41:12;;;;;;;15.95;2.03;;;11.10;92.10;;;;;;5133825;28;20024;-76
2023/01/11 09:43:51;;;;;;;5.82;2.13;;;11.10;92.10;;;;;;5123909;28;20061;-76
2023/01/11 09:46:17;;;;;;;8.98;1.55;;;11.10;92.20;;;;;;5133640;28;20028;-76
2023/01/11 09:48:53;;;;;;;6.80;1.80;;;11.10;92.20;;;;;;5133716;28;20024;-77
2023/01/11 09:51:22;;;;;;;16.05;3.97;;;11.10;92.30;;;;;;5134634;28;20023;-76
2023/01/11 09:53:50;;;;;;;12.68;2.70;;;11.00;92.10;;;;;;5133526;28;20081;-76
2023/01/11 09:56:24;;;;;;;12.25;1.85;;;11.00;92.10;;;;;;5133565;28;20456;-76
2023/01/11 09:59:13;;;;;;;15.95;2.70;;;11.10;92.20;;;;;;5134667;28;20043;-76
2023/01/11 10:01:48;;;;;;;12.90;3.15;;;11.20;91.90;;;;;;5133500;28;20386;-76
2023/01/11 10:04:21;;;;;;;14.20;2.78;;;11.40;91.90;;;;;;5134476;28;20023;-76
2023/01/11 10:07:11;;;;;;;12.43;1.90;;;11.60;91.90;;;;;;5134323;28;20031;-76
2023/01/11 10:10:03;;;;;;;8.45;1.60;;;11.60;91.00;;;;;;5133248;28;20144;-76
2023/01/11 10:12:52;;;;;;;8.27;1.70;;;11.60;91.00;;;;;;5133112;28;20020;-77
2023/01/11 10:15:31;;;;;;;6.30;1.75;;;11.50;91.10;;;;;;5134030;28;20023;-76
2023/01/11 10:18:16;;;;;;;9.75;3.25;;;11.60;91.00;;;;;;5133157;28;20043;-76
2023/01/11 10:20:49;;;;;;;9.90;2.35;;;11.80;91.10;;;;;;5134311;28;20023;-76
2023/01/11 10:23:44;;;;;;;8.98;2.30;;;11.90;90.50;;;;;;5133188;28;20023;-76
2023/01/11 10:26:26;;;;;;;10.18;2.10;;;12.10;90.30;;;;;;5134203;28;20024;-76
2023/01/11 10:29:32;;;;;;;25.90;8.13;;;12.20;89.40;;;;;;5134160;28;20019;-76
2023/01/11 10:34:58;;;;;;;12.93;2.90;;;12.40;88.60;;;;;;5134088;28;20049;-76
2023/01/11 10:37:52;;;;;;;8.48;2.40;;;12.60;87.70;;;;;;5133814;28;20012;-77
2023/01/11 10:41:01;;;;;;;9.65;1.60;;;13.00;87.30;;;;;;5133984;28;20032;-76
2023/01/11 10:43:24;;;;;;;6.40;1.52;;;13.30;86.20;;;;;;5133800;28;20024;-77
2023/01/11 10:45:58;;;;;;;9.38;1.38;;;13.30;84.40;;;;;;5116084;28;20031;-77
2023/01/11 10:48:37;;;;;;;10.10;2.05;;;13.10;84.90;;;;;;5132877;28;20053;-77
2023/01/11 10:51:31;;;;;;;8.10;1.50;;;12.80;85.20;;;;;;5132901;28;20041;-77
2023/01/11 10:54:15;;;;;;;8.25;1.67;;;12.70;85.50;;;;;;5132882;28;20111;-77
2023/01/11 10:57:19;;;;;;;8.25;2.85;;;12.60;86.50;;;;;;5132849;28;20049;-76
2023/01/11 11:00:22;;;;;;;11.27;2.90;;;12.50;86.10;;;;;;5132905;28;20116;-77
2023/01/11 11:03:07;;;;;;;6.75;1.65;;;12.40;86.20;;;;;;5132810;28;20539;-76
2023/01/11 11:05:33;;;;;;;11.82;2.10;;;12.30;85.90;;;;;;5132641;28;20023;-77
2023/01/11 11:08:10;;;;;;;7.60;1.90;;;12.20;86.00;;;;;;5132562;28;20114;-77
2023/01/11 11:10:41;;;;;;;7.07;1.98;;;12.30;87.20;;;;;;5133756;28;20019;-76
2023/01/11 11:13:31;;;;;;;8.75;1.95;;;12.30;87.00;;;;;;5132689;28;20049;-77
2023/01/11 11:16:23;;;;;;;14.75;2.63;;;12.30;86.50;;;;;;5132590;28;20038;-76
2023/01/11 11:18:50;;;;;;;9.77;2.42;;;12.30;85.50;;;;;;5095273;28;20066;-77
2023/01/11 11:21:22;;;;;;;11.27;2.80;;;12.30;85.60;;;;;;5115728;28;20442;-76
2023/01/11 11:23:55;;;;;;;5.88;1.70;;;12.20;84.80;;;;;;5132585;28;20024;-77
2023/01/11 11:26:26;;;;;;;8.38;1.90;;;12.30;85.30;;;;;;5137227;28;20030;-76
2023/01/11 11:29:02;;;;;;;11.98;2.08;;;12.30;84.60;;;;;;5137472;27;20020;-77
2023/01/11 11:31:29;;;;;;;8.18;2.00;;;12.30;84.60;;;;;;5136398;28;20026;-76
2023/01/11 11:33:55;;;;;;;6.70;1.73;;;12.30;85.00;;;;;;5136368;28;20023;-76
2023/01/11 11:36:23;;;;;;;9.70;1.40;;;12.30;84.50;;;;;;5136409;28;20047;-76
2023/01/11 11:39:10;;;;;;;12.15;2.35;;;12.30;82.90;;;;;;5135964;28;20043;-76
2023/01/11 11:41:55;;;;;;;9.30;1.70;;;12.30;83.60;;;;;;5137275;28;20051;-77
2023/01/11 11:44:23;;;;;;;6.57;1.67;;;12.30;83.10;;;;;;5137108;28;20020;-76
2023/01/11 11:47:03;;;;;;;15.85;4.15;;;12.30;82.10;;;;;;5135934;28;20020;-77
2023/01/11 11:49:32;;;;;;;6.65;2.08;;;12.40;81.90;;;;;;5137065;28;20043;-76
2023/01/11 11:51:59;;;;;;;7.93;1.98;;;12.30;80.60;;;;;;5136937;28;20023;-76
2023/01/11 11:54:40;;;;;;;6.05;1.70;;;12.30;81.30;;;;;;5135903;28;20044;-76
2023/01/11 11:57:21;;;;;;;7.80;2.00;;;12.30;81.70;;;;;;5136953;28;20016;-76
2023/01/11 11:59:49;;;;;;;4.85;1.52;;;12.30;81.80;;;;;;5136857;28;20023;-77
2023/01/11 12:02:28;;;;;;;10.40;2.10;;;12.40;82.70;;;;;;5135676;28;20024;-76
2023/01/11 12:04:56;;;;;;;9.40;1.83;;;12.40;82.70;;;;;;5135744;28;20024;-76
2023/01/11 12:07:25;;;;;;;13.63;2.22;;;12.40;81.80;;;;;;5135723;28;20049;-76
2023/01/11 12:09:58;;;;;;;7.00;1.38;;;12.40;81.50;;;;;;5136537;28;20016;-76
2023/01/11 12:12:24;;;;;;;8.30;1.85;;;12.50;81.70;;;;;;5135614;28;20470;-76
2023/01/11 12:15:15;;;;;;;7.13;1.90;;;12.50;80.80;;;;;;5118242;28;20016;-76
2023/01/11 12:17:42;;;;;;;10.15;1.88;;;12.50;80.40;;;;;;5136404;28;20050;-76
2023/01/11 12:20:27;;;;;;;7.10;2.63;;;12.50;81.10;;;;;;5136461;28;20024;-76
2023/01/11 12:23:15;;;;;;;10.82;1.80;;;12.50;79.90;;;;;;5135345;28;20041;-76
2023/01/11 12:26:07;;;;;;;7.60;1.50;;;12.50;79.40;;;;;;5136417;28;20016;-76
2023/01/11 12:29:10;;;;;;;6.82;1.60;;;12.60;79.10;;;;;;5136293;28;20020;-77
2023/01/11 12:31:41;;;;;;;;;;;12.70;79.90;;;;;;5136571;28;20030;-76
2023/01/11 12:34:49;;;;;;;6.72;1.98;;;12.80;78.00;;;;;;5136191;28;19904;-77
2023/01/11 12:37:55;;;;;;;6.97;1.58;;;12.60;78.50;;;;;;5052727;28;20030;-76
2023/01/11 12:40:34;;;;;;;6.60;1.63;;;12.50;78.20;;;;;;5135063;28;20032;-76
2023/01/11 12:43:26;;;;;;;11.20;2.22;;;12.40;78.20;;;;;;5136016;28;20043;-76
2023/01/11 12:46:06;;;;;;;8.88;2.38;;;12.40;77.70;;;;;;5124774;28;20043;-76
2023/01/11 12:48:56;;;;;;;8.88;2.85;;;12.30;77.50;;;;;;5136039;28;20016;-76
2023/01/11 12:51:59;;;;;;;6.38;1.77;;;12.30;78.70;;;;;;5135966;28;20420;-74
2023/01/11 12:54:50;;;;;;;;;;;12.30;76.80;;;;;;5135085;28;20023;-74
2023/01/11 12:57:58;;;;;;;9.00;2.13;;;12.40;77.10;;;;;;5125988;28;19904;-74
2023/01/11 13:00:51;;;;;;;10.82;2.25;;;12.60;77.70;;;;;;5135609;28;20024;-74
2023/01/11 13:03:28;;;;;;;9.27;2.92;;;12.80;76.30;;;;;;5124583;28;20043;-74
2023/01/11 13:06:13;;;;;;;9.80;2.38;;;12.80;75.40;;;;;;5134506;28;20035;-74
2023/01/11 13:09:07;;;;;;;13.50;3.45;;;12.90;76.20;;;;;;5135425;28;20075;-74
2023/01/11 13:11:44;;;;;;;11.73;3.22;;;12.80;75.80;;;;;;5134338;28;20043;-74
2023/01/11 13:14:32;;;;;;;12.35;2.53;;;12.80;75.20;;;;;;5135342;28;20031;-74
2023/01/11 13:17:10;;;;;;;5.70;2.42;;;13.00;74.70;;;;;;5134244;28;20107;-73
2023/01/11 13:19:51;;;;;;;7.97;1.50;;;13.00;73.90;;;;;;5134281;28;20023;-74
2023/01/11 13:22:19;;;;;;;10.65;2.60;;;13.00;73.90;;;;;;5134262;28;20027;-74
2023/01/11 13:24:48;;;;;;;8.25;2.05;;;13.00;74.00;;;;;;5135144;28;20023;-74
2023/01/11 13:27:21;;;;;;;11.73;2.05;;;13.00;74.10;;;;;;5134093;28;20110;-74
2023/01/11 13:29:49;;;;;;;;;;;12.90;73.50;;;;;;5135512;28;20032;-74
2023/01/11 13:32:22;;;;;;;5.88;1.63;;;12.90;73.40;;;;;;5134044;28;19908;-74
2023/01/11 13:34:52;;;;;;;10.73;3.50;;;12.70;73.20;;;;;;5135043;28;20050;-74
2023/01/11 13:37:29;;;;;;;7.65;2.65;;;12.70;74.50;;;;;;5134976;28;20020;-75
2023/01/11 13:40:14;;;;;;;9.77;1.88;;;12.60;74.30;;;;;;5133775;28;20375;-74
2023/01/11 13:42:45;;;;;;;7.70;1.38;;;12.60;73.60;;;;;;5133874;28;20041;-74